Time;durP1;ratioP1;P1;durP2;ratioP2;P2;SDS_P1;SDS_P2;PMS_P1;PMS_P2;Temp;Humidity;BMP_temperature;BMP_pressure;BME280_temperature;BME280_humidity;BME280_pressure;Samples;Min_cycle;Max_cycle;Signal;HPM_P1;HPM_P2
2024/01/22 00:00:27;;;;;;;7.70;4.03;;;10.20;99.90;;;;;;5045915;28;20232;-60
2024/01/22 00:02:56;;;;;;;4.80;3.70;;;10.10;99.90;;;;;;5048230;28;20278;-61
2024/01/22 00:05:25;;;;;;;4.90;3.80;;;10.20;99.90;;;;;;5042436;28;20305;-60
2024/01/22 00:07:53;;;;;;;6.97;4.13;;;10.20;99.90;;;;;;5045988;28;20240;-61
2024/01/22 00:10:21;;;;;;;5.27;3.73;;;10.20;99.90;;;;;;5047403;28;20219;-60
2024/01/22 00:12:49;;;;;;;7.70;3.97;;;10.20;99.90;;;;;;5043340;28;20256;-60
2024/01/22 00:15:18;;;;;;;8.30;3.50;;;10.20;99.90;;;;;;5048417;28;20217;-61
2024/01/22 00:17:46;;;;;;;5.40;3.83;;;10.20;99.90;;;;;;5043116;28;20232;-61
2024/01/22 00:20:16;;;;;;;4.00;3.70;;;10.30;99.90;;;;;;5049011;28;20558;-61
2024/01/22 00:22:44;;;;;;;5.77;3.80;;;10.20;99.90;;;;;;5048685;28;20213;-60
2024/01/22 00:25:12;;;;;;;7.83;3.60;;;10.20;99.90;;;;;;5048837;28;20216;-60
2024/01/22 00:27:40;;;;;;;4.50;3.53;;;10.20;99.90;;;;;;5049769;28;20232;-62
2024/01/22 00:30:13;;;;;;;3.97;3.60;;;10.30;99.90;;;;;;5046442;28;20244;-61
2024/01/22 00:32:41;;;;;;;6.73;3.43;;;10.30;99.90;;;;;;5045955;28;20708;-61
2024/01/22 00:35:10;;;;;;;3.93;3.03;;;10.30;99.90;;;;;;5043111;28;20186;-61
2024/01/22 00:37:40;;;;;;;3.60;3.30;;;10.30;99.90;;;;;;5044679;28;20633;-61
2024/01/22 00:40:09;;;;;;;3.60;3.20;;;10.30;99.90;;;;;;5050706;28;20679;-61
2024/01/22 00:42:37;;;;;;;3.40;3.03;;;10.40;99.90;;;;;;5044631;28;20303;-62
2024/01/22 00:45:07;;;;;;;3.40;3.20;;;10.50;99.90;;;;;;5049328;28;20243;-61
2024/01/22 00:47:35;;;;;;;3.93;3.10;;;10.50;99.90;;;;;;5044776;28;20726;-60
2024/01/22 00:50:04;;;;;;;3.43;3.13;;;10.50;99.90;;;;;;5047819;28;20207;-62
2024/01/22 00:52:33;;;;;;;3.50;3.10;;;10.50;99.90;;;;;;5045621;28;20203;-61
2024/01/22 00:55:02;;;;;;;3.63;2.93;;;10.40;99.90;;;;;;5046511;28;20232;-62
2024/01/22 00:57:31;;;;;;;2.73;2.53;;;10.50;99.90;;;;;;5048300;28;20228;-61
2024/01/22 01:00:02;;;;;;;3.43;3.13;;;10.60;99.90;;;;;;5046070;28;20219;-61
2024/01/22 01:02:30;;;;;;;4.73;2.90;;;10.60;99.90;;;;;;5042622;28;20552;-61
2024/01/22 01:04:59;;;;;;;2.67;2.50;;;10.60;99.90;;;;;;5049479;28;20203;-61
2024/01/22 01:07:27;;;;;;;3.50;2.80;;;10.60;99.90;;;;;;5048768;28;20220;-61
2024/01/22 01:09:55;;;;;;;3.20;3.00;;;10.70;99.90;;;;;;5051553;28;20212;-60
2024/01/22 01:12:25;;;;;;;2.77;2.50;;;10.80;99.90;;;;;;5052027;28;20220;-62
2024/01/22 01:14:54;;;;;;;3.47;3.03;;;10.80;99.90;;;;;;5043850;28;20224;-61
2024/01/22 01:17:23;;;;;;;3.43;2.87;;;10.80;99.90;;;;;;5042240;28;20193;-61
2024/01/22 01:19:51;;;;;;;3.00;2.50;;;10.80;99.90;;;;;;5046901;28;20283;-61
2024/01/22 01:22:19;;;;;;;3.70;2.73;;;10.80;99.90;;;;;;5039236;28;20217;-61
2024/01/22 01:24:47;;;;;;;2.40;2.30;;;10.80;99.90;;;;;;5048616;28;20294;-60
2024/01/22 01:27:19;;;;;;;2.40;2.20;;;10.90;99.90;;;;;;5045994;28;20704;-61
2024/01/22 01:29:49;;;;;;;4.27;2.50;;;10.90;99.90;;;;;;5048671;28;20303;-60
2024/01/22 01:32:17;;;;;;;3.03;2.70;;;10.90;99.90;;;;;;5049865;28;20194;-60
2024/01/22 01:34:47;;;;;;;2.20;2.10;;;10.90;99.90;;;;;;5046667;28;20194;-60
2024/01/22 01:37:15;;;;;;;2.47;2.20;;;10.90;99.90;;;;;;5045393;28;20221;-60
2024/01/22 01:39:43;;;;;;;2.43;2.23;;;10.90;99.90;;;;;;5050192;28;20227;-61
2024/01/22 01:42:11;;;;;;;3.87;2.20;;;10.90;99.90;;;;;;5047318;28;20222;-61
2024/01/22 01:44:50;;;;;;;2.70;2.50;;;10.90;99.90;;;;;;5045772;28;20228;-61
2024/01/22 01:47:19;;;;;;;2.27;2.07;;;10.90;99.90;;;;;;5044161;28;20185;-61
2024/01/22 01:49:48;;;;;;;3.20;2.33;;;11.10;99.90;;;;;;5042441;28;20585;-60
2024/01/22 01:52:18;;;;;;;3.53;2.50;;;11.10;99.90;;;;;;5049696;28;20707;-61
2024/01/22 01:54:47;;;;;;;2.47;2.17;;;11.10;99.90;;;;;;5044365;28;20639;-61
2024/01/22 01:57:17;;;;;;;2.13;2.03;;;11.00;99.90;;;;;;5048458;28;20699;-62
2024/01/22 01:59:45;;;;;;;2.40;2.30;;;11.10;99.90;;;;;;5043299;28;20233;-61
2024/01/22 02:02:15;;;;;;;2.40;2.20;;;11.10;99.90;;;;;;5041526;28;20320;-62
2024/01/22 02:04:43;;;;;;;2.40;2.30;;;11.10;99.90;;;;;;5046647;28;20199;-63
2024/01/22 02:07:12;;;;;;;2.17;2.07;;;11.00;99.90;;;;;;5046772;28;20224;-62
2024/01/22 02:09:47;;;;;;;3.47;2.43;;;11.00;99.90;;;;;;5048256;28;20221;-61
2024/01/22 02:12:17;;;;;;;2.90;2.43;;;10.80;99.90;;;;;;5041918;28;20224;-61
2024/01/22 02:14:46;;;;;;;2.87;2.57;;;10.80;99.90;;;;;;5045719;28;20217;-60
2024/01/22 02:17:16;;;;;;;2.70;2.50;;;10.70;99.90;;;;;;5042112;28;20598;-60
2024/01/22 02:19:45;;;;;;;3.13;2.23;;;10.70;99.90;;;;;;5045533;28;20197;-61
2024/01/22 02:22:13;;;;;;;2.67;2.47;;;10.70;99.90;;;;;;5041467;28;20213;-62
2024/01/22 02:24:43;;;;;;;3.53;2.33;;;10.70;99.90;;;;;;5048394;28;20312;-61
2024/01/22 02:27:12;;;;;;;3.97;2.53;;;10.70;99.90;;;;;;5044927;28;20283;-61
2024/01/22 02:29:40;;;;;;;2.43;2.30;;;10.60;99.90;;;;;;5044531;28;20315;-61
2024/01/22 02:32:09;;;;;;;2.67;2.40;;;10.70;99.90;;;;;;5048432;28;20196;-60
2024/01/22 02:34:37;;;;;;;2.77;2.57;;;10.70;99.90;;;;;;5046077;28;20700;-61
2024/01/22 02:37:06;;;;;;;2.17;2.07;;;10.70;99.90;;;;;;5051605;28;20582;-61
2024/01/22 02:39:35;;;;;;;3.53;2.40;;;10.60;99.90;;;;;;5049344;28;20213;-61
2024/01/22 02:42:05;;;;;;;4.27;2.80;;;10.60;99.90;;;;;;5053431;28;20229;-61
2024/01/22 02:44:35;;;;;;;2.50;2.30;;;10.50;99.90;;;;;;5047859;28;20216;-61
2024/01/22 02:47:04;;;;;;;2.50;2.30;;;10.50;99.90;;;;;;5053471;28;20193;-61
2024/01/22 02:49:34;;;;;;;3.57;2.60;;;10.40;99.90;;;;;;5039351;28;20193;-60
2024/01/22 02:52:03;;;;;;;2.77;2.57;;;10.40;99.90;;;;;;5053716;28;20247;-60
2024/01/22 02:54:31;;;;;;;2.33;2.20;;;10.30;99.90;;;;;;5050946;28;20545;-60
2024/01/22 02:56:59;;;;;;;2.23;2.03;;;10.30;99.90;;;;;;5052664;28;20639;-60
2024/01/22 02:59:29;;;;;;;2.63;2.40;;;10.30;99.90;;;;;;5051016;28;20315;-60
2024/01/22 03:01:57;;;;;;;2.43;2.30;;;10.30;99.90;;;;;;5056071;28;20223;-59
2024/01/22 03:04:26;;;;;;;2.73;2.20;;;10.40;99.90;;;;;;5054430;28;20228;-61
2024/01/22 03:06:55;;;;;;;2.40;2.17;;;10.40;99.90;;;;;;5047953;28;20216;-60
2024/01/22 03:09:24;;;;;;;2.40;2.20;;;10.50;99.90;;;;;;5053871;28;20555;-60
2024/01/22 03:11:53;;;;;;;1.97;1.97;;;10.60;99.90;;;;;;5052985;28;20718;-61
2024/01/22 03:14:21;;;;;;;2.77;1.70;;;10.60;99.90;;;;;;5043814;28;20194;-59
2024/01/22 03:16:51;;;;;;;3.63;2.10;;;10.60;99.90;;;;;;5054608;28;20288;-60
2024/01/22 03:19:19;;;;;;;1.90;1.80;;;10.60;99.90;;;;;;5054317;28;20231;-60
2024/01/22 03:21:47;;;;;;;1.97;1.90;;;10.70;99.90;;;;;;5054370;28;20767;-60
2024/01/22 03:24:16;;;;;;;2.33;1.90;;;10.70;99.90;;;;;;5055807;28;20311;-61
2024/01/22 03:26:44;;;;;;;1.97;1.87;;;10.70;99.90;;;;;;5046809;28;20248;-61
2024/01/22 03:29:13;;;;;;;2.30;2.10;;;10.70;99.90;;;;;;5051239;28;20212;-61
2024/01/22 03:31:41;;;;;;;2.73;1.80;;;10.80;99.90;;;;;;5044518;28;20667;-61
2024/01/22 03:34:10;;;;;;;1.90;1.90;;;10.80;99.90;;;;;;5052975;28;20217;-60
2024/01/22 03:36:39;;;;;;;1.90;1.80;;;10.80;99.90;;;;;;5046108;28;20236;-61
2024/01/22 03:39:07;;;;;;;3.77;2.10;;;10.80;99.90;;;;;;5049908;28;20213;-61
2024/01/22 03:41:40;;;;;;;2.57;1.90;;;10.80;99.90;;;;;;5052608;28;20679;-61
2024/01/22 03:44:08;;;;;;;2.57;1.90;;;10.90;99.90;;;;;;5050946;28;20263;-61
2024/01/22 03:46:37;;;;;;;1.87;1.73;;;11.00;99.90;;;;;;5054243;28;20185;-61
2024/01/22 03:49:05;;;;;;;3.33;1.87;;;11.00;99.90;;;;;;5046073;28;20223;-60
2024/01/22 03:51:35;;;;;;;2.03;1.83;;;11.00;99.90;;;;;;5053315;28;20220;-62
2024/01/22 03:54:03;;;;;;;2.77;1.80;;;11.00;99.90;;;;;;5053861;28;20575;-61
2024/01/22 03:56:31;;;;;;;1.80;1.70;;;11.00;99.90;;;;;;5051703;28;20274;-62
2024/01/22 03:59:00;;;;;;;2.07;1.70;;;11.10;99.90;;;;;;5047561;28;20303;-61
2024/01/22 04:01:28;;;;;;;2.63;1.70;;;11.10;99.90;;;;;;5054313;28;20223;-60
2024/01/22 04:03:55;;;;;;;2.27;2.13;;;11.20;99.90;;;;;;5053587;28;20228;-61
2024/01/22 04:06:23;;;;;;;2.80;1.57;;;11.30;99.90;;;;;;5038753;28;20583;-62
2024/01/22 04:08:53;;;;;;;2.37;1.70;;;11.30;99.90;;;;;;5047961;28;20316;-61
2024/01/22 04:11:21;;;;;;;5.20;1.53;;;11.30;99.90;;;;;;5053209;28;20231;-61
2024/01/22 04:13:49;;;;;;;1.40;1.33;;;11.40;99.90;;;;;;5049431;28;20188;-61
2024/01/22 04:16:17;;;;;;;2.77;1.40;;;11.50;99.90;;;;;;5046729;28;20560;-61
2024/01/22 04:18:45;;;;;;;2.37;1.60;;;11.60;99.90;;;;;;5050440;28;20217;-60
2024/01/22 04:21:14;;;;;;;1.80;1.70;;;11.60;99.90;;;;;;5050968;28;20323;-61
2024/01/22 04:23:42;;;;;;;2.33;1.50;;;11.60;99.90;;;;;;5049151;28;20236;-61
2024/01/22 04:26:12;;;;;;;1.67;1.50;;;11.60;99.90;;;;;;5050718;28;20585;-61
2024/01/22 04:28:41;;;;;;;1.60;1.50;;;11.70;99.90;;;;;;5041613;28;20200;-61
2024/01/22 04:31:09;;;;;;;3.80;1.70;;;11.60;99.90;;;;;;5051659;28;20212;-61
2024/01/22 04:33:38;;;;;;;2.43;1.50;;;11.50;99.90;;;;;;5052529;28;20616;-61
2024/01/22 04:36:07;;;;;;;1.73;1.60;;;11.50;99.90;;;;;;5051502;28;20299;-61
2024/01/22 04:38:38;;;;;;;2.07;1.60;;;11.50;99.90;;;;;;5039862;28;20224;-60
2024/01/22 04:41:06;;;;;;;1.90;1.80;;;11.40;99.90;;;;;;5046626;28;20184;-60
2024/01/22 04:43:36;;;;;;;4.13;1.53;;;11.20;99.90;;;;;;5050962;28;20212;-61
2024/01/22 04:46:04;;;;;;;2.37;2.13;;;11.10;99.90;;;;;;5052255;28;20231;-60
2024/01/22 04:48:33;;;;;;;2.10;1.90;;;11.20;99.90;;;;;;5047748;28;20220;-61
2024/01/22 04:51:01;;;;;;;1.90;1.80;;;11.20;99.90;;;;;;5048658;28;20235;-61
2024/01/22 04:53:29;;;;;;;2.43;2.10;;;11.10;99.90;;;;;;5050908;28;20220;-61
2024/01/22 04:55:57;;;;;;;2.87;1.80;;;11.20;99.90;;;;;;5050628;28;20191;-61
2024/01/22 04:58:26;;;;;;;3.33;2.00;;;11.10;99.90;;;;;;5057185;28;20299;-60
2024/01/22 05:00:55;;;;;;;2.33;1.90;;;11.10;99.90;;;;;;5050131;28;20221;-61
2024/01/22 05:03:24;;;;;;;5.83;2.43;;;11.00;99.90;;;;;;5047034;28;20646;-61
2024/01/22 05:05:52;;;;;;;2.63;1.80;;;11.00;99.90;;;;;;5045426;28;20216;-60
2024/01/22 05:08:20;;;;;;;2.87;2.23;;;11.00;99.90;;;;;;5044666;28;20244;-60
2024/01/22 05:10:48;;;;;;;2.00;1.90;;;11.00;99.90;;;;;;5052217;28;20185;-61
2024/01/22 05:13:17;;;;;;;2.20;2.00;;;11.00;99.90;;;;;;5052208;28;20220;-59
2024/01/22 05:15:45;;;;;;;2.20;2.00;;;10.90;99.90;;;;;;5041842;28;20236;-60
2024/01/22 05:18:15;;;;;;;2.13;2.03;;;10.90;99.90;;;;;;5038632;28;20248;-61
2024/01/22 05:20:43;;;;;;;3.40;2.03;;;10.80;99.90;;;;;;5044791;28;20628;-60
2024/01/22 05:23:11;;;;;;;4.43;2.17;;;10.80;99.90;;;;;;5048919;28;20192;-60
2024/01/22 05:25:40;;;;;;;2.33;1.90;;;10.70;99.90;;;;;;5043338;28;20271;-60
2024/01/22 05:28:08;;;;;;;2.90;2.20;;;10.70;99.90;;;;;;5045833;28;20228;-60
2024/01/22 05:30:36;;;;;;;2.30;2.17;;;10.70;99.90;;;;;;5043976;28;20591;-60
2024/01/22 05:33:04;;;;;;;6.50;2.90;;;10.70;99.90;;;;;;5042419;28;20277;-59
2024/01/22 05:35:35;;;;;;;2.50;2.23;;;10.60;99.90;;;;;;5045797;28;20315;-60
2024/01/22 05:38:04;;;;;;;2.90;2.50;;;10.60;99.90;;;;;;5040935;28;20201;-58
2024/01/22 05:40:32;;;;;;;4.60;4.10;;;10.60;99.90;;;;;;5040741;28;20211;-60
2024/01/22 05:43:00;;;;;;;2.53;2.37;;;10.60;99.90;;;;;;5048405;28;20220;-60
2024/01/22 05:45:29;;;;;;;3.23;2.53;;;10.50;99.90;;;;;;5047170;28;20233;-60
2024/01/22 05:47:57;;;;;;;5.33;2.57;;;10.60;99.90;;;;;;5047609;28;20226;-60
2024/01/22 05:50:25;;;;;;;2.50;2.40;;;10.60;99.90;;;;;;5049175;28;20259;-60
2024/01/22 05:52:55;;;;;;;5.27;2.57;;;10.60;99.90;;;;;;5049234;28;20199;-60
2024/01/22 05:55:23;;;;;;;6.13;2.70;;;10.60;99.90;;;;;;5044970;28;20702;-60
2024/01/22 05:57:51;;;;;;;4.07;2.33;;;10.60;99.90;;;;;;5051377;28;20216;-60
2024/01/22 06:00:20;;;;;;;5.17;2.90;;;10.60;99.90;;;;;;5045768;28;20608;-60
2024/01/22 06:02:48;;;;;;;3.30;3.10;;;10.60;99.90;;;;;;5050736;28;20224;-60
2024/01/22 06:05:17;;;;;;;7.60;5.37;;;10.50;99.90;;;;;;5048815;28;20219;-61
2024/01/22 06:07:47;;;;;;;2.90;2.70;;;10.50;99.90;;;;;;5050210;28;20192;-60
2024/01/22 06:10:16;;;;;;;2.73;2.60;;;10.60;99.90;;;;;;5047979;28;20216;-61
2024/01/22 06:12:45;;;;;;;2.40;2.30;;;10.60;99.90;;;;;;5055220;28;20587;-60
2024/01/22 06:15:13;;;;;;;2.33;2.23;;;10.60;99.90;;;;;;5055848;28;20224;-61
2024/01/22 06:17:42;;;;;;;2.90;2.30;;;10.60;99.90;;;;;;5053396;28;20216;-61
2024/01/22 06:20:12;;;;;;;2.97;2.40;;;10.60;99.90;;;;;;5045744;28;20200;-61
2024/01/22 06:22:40;;;;;;;6.47;2.30;;;10.60;99.90;;;;;;5056110;28;20461;-60
2024/01/22 06:25:09;;;;;;;3.80;2.80;;;10.70;99.90;;;;;;5055540;28;20224;-61
2024/01/22 06:27:44;;;;;;;4.03;2.63;;;10.70;99.90;;;;;;5055229;28;20240;-61
2024/01/22 06:30:15;;;;;;;3.10;2.23;;;10.70;99.90;;;;;;5054941;28;20220;-60
2024/01/22 06:32:43;;;;;;;4.33;1.90;;;10.70;99.90;;;;;;5054907;28;20220;-61
2024/01/22 06:35:12;;;;;;;6.60;2.20;;;10.70;99.90;;;;;;5055121;28;20231;-61
2024/01/22 06:37:40;;;;;;;4.17;2.13;;;10.80;99.90;;;;;;5045801;28;20193;-61
2024/01/22 06:40:10;;;;;;;6.37;2.30;;;10.70;99.90;;;;;;5043888;28;20217;-61
2024/01/22 06:42:38;;;;;;;9.27;2.57;;;10.70;99.90;;;;;;5054132;28;20220;-61
2024/01/22 06:45:09;;;;;;;11.60;3.00;;;10.70;99.90;;;;;;5053422;28;20229;-61
2024/01/22 06:47:37;;;;;;;13.13;2.60;;;10.70;99.90;;;;;;5047966;28;20225;-61
2024/01/22 06:50:07;;;;;;;20.47;5.23;;;10.70;99.90;;;;;;5053896;28;20203;-61
2024/01/22 06:52:36;;;;;;;17.60;2.77;;;10.80;99.90;;;;;;5047116;28;20562;-61
2024/01/22 06:55:06;;;;;;;18.27;3.30;;;10.80;99.90;;;;;;5053888;28;20219;-61
2024/01/22 06:57:36;;;;;;;27.60;3.70;;;10.80;99.90;;;;;;5052109;28;20232;-61
2024/01/22 07:00:07;;;;;;;35.07;4.50;;;10.80;99.90;;;;;;5065212;28;20216;-61
2024/01/22 07:02:38;;;;;;;33.43;3.90;;;10.90;99.90;;;;;;5052591;28;20228;-61
2024/01/22 07:05:08;;;;;;;26.47;4.90;;;10.90;99.90;;;;;;5075188;28;20336;-61
2024/01/22 07:07:37;;;;;;;33.63;5.37;;;11.00;99.90;;;;;;5050313;28;20271;-61
2024/01/22 07:10:07;;;;;;;29.30;4.93;;;11.00;99.90;;;;;;5054501;28;20239;-61
2024/01/22 07:12:36;;;;;;;30.90;5.07;;;11.00;99.90;;;;;;5056482;28;20224;-61
2024/01/22 07:15:05;;;;;;;30.53;4.40;;;11.00;99.90;;;;;;5054510;28;20214;-61
2024/01/22 07:17:33;;;;;;;29.80;4.27;;;11.00;99.90;;;;;;5044725;28;20229;-61
2024/01/22 07:20:03;;;;;;;26.60;4.73;;;11.00;99.90;;;;;;5039807;28;20202;-61
2024/01/22 07:22:32;;;;;;;25.10;4.97;;;10.90;99.90;;;;;;5044369;28;20216;-60
2024/01/22 07:25:00;;;;;;;21.30;5.00;;;10.90;99.90;;;;;;5054344;28;20703;-60
2024/01/22 07:27:29;;;;;;;17.90;3.73;;;10.90;99.90;;;;;;5054107;28;20228;-61
2024/01/22 07:29:57;;;;;;;18.73;3.53;;;10.80;99.90;;;;;;5053789;28;20220;-61
2024/01/22 07:32:27;;;;;;;21.10;3.60;;;10.70;99.90;;;;;;5054172;28;20217;-60
2024/01/22 07:34:59;;;;;;;14.87;3.23;;;10.70;99.90;;;;;;5054663;28;20193;-60
2024/01/22 07:37:29;;;;;;;17.37;3.40;;;10.70;99.90;;;;;;5048093;28;20212;-61
2024/01/22 07:39:57;;;;;;;16.73;3.13;;;10.70;99.90;;;;;;5040242;28;20236;-61
2024/01/22 07:42:25;;;;;;;15.97;3.50;;;10.70;99.90;;;;;;5051818;28;20223;-60
2024/01/22 07:44:54;;;;;;;21.00;4.17;;;10.60;99.90;;;;;;5052260;28;20227;-61
2024/01/22 07:47:22;;;;;;;31.63;4.53;;;10.60;99.90;;;;;;5053139;28;20578;-61
2024/01/22 07:49:49;;;;;;;32.07;4.70;;;10.70;99.90;;;;;;5054550;28;20197;-60
2024/01/22 07:52:18;;;;;;;25.07;4.67;;;10.70;99.90;;;;;;5053260;28;20299;-61
2024/01/22 07:54:48;;;;;;;26.77;4.67;;;10.70;99.90;;;;;;5052607;28;20221;-61
2024/01/22 07:57:16;;;;;;;26.40;5.03;;;10.80;99.90;;;;;;5053855;28;20591;-60
2024/01/22 07:59:46;;;;;;;29.00;4.70;;;10.80;99.90;;;;;;5044229;28;20228;-61
2024/01/22 08:02:14;;;;;;;25.87;4.90;;;10.80;99.90;;;;;;5035565;28;20236;-61
2024/01/22 08:04:43;;;;;;;25.47;4.40;;;10.90;99.90;;;;;;5051312;28;20192;-61
2024/01/22 08:07:11;;;;;;;16.87;3.80;;;10.90;99.90;;;;;;5051116;28;20307;-61
2024/01/22 08:09:40;;;;;;;18.67;4.07;;;10.80;99.90;;;;;;5050375;28;20240;-61
2024/01/22 08:12:10;;;;;;;19.67;3.23;;;10.70;99.90;;;;;;5043021;28;20224;-60
2024/01/22 08:14:38;;;;;;;23.67;3.97;;;10.70;99.90;;;;;;5051069;28;20239;-61
2024/01/22 08:17:07;;;;;;;22.77;3.83;;;10.70;99.90;;;;;;5051244;28;20292;-61
2024/01/22 08:19:36;;;;;;;17.43;3.60;;;10.70;99.90;;;;;;5053613;28;20193;-61
2024/01/22 08:22:04;;;;;;;15.67;3.33;;;10.70;99.90;;;;;;5048930;28;20248;-60
2024/01/22 08:24:33;;;;;;;19.90;3.20;;;10.70;99.90;;;;;;5051401;28;20315;-61
2024/01/22 08:27:02;;;;;;;14.17;3.63;;;10.70;99.90;;;;;;5048123;28;20236;-61
2024/01/22 08:29:32;;;;;;;12.67;3.33;;;10.70;99.90;;;;;;5053250;28;20331;-61
2024/01/22 08:32:00;;;;;;;8.97;3.30;;;10.70;99.90;;;;;;5052143;28;20199;-60
2024/01/22 08:34:29;;;;;;;9.67;3.23;;;10.70;99.90;;;;;;5052117;28;20212;-61
2024/01/22 08:36:57;;;;;;;5.47;3.20;;;10.70;99.90;;;;;;5050860;28;20224;-60
2024/01/22 08:39:26;;;;;;;19.33;4.40;;;10.70;99.90;;;;;;5053001;28;20225;-61
2024/01/22 08:41:54;;;;;;;11.93;3.67;;;10.60;99.90;;;;;;5052853;28;20316;-60
2024/01/22 08:44:22;;;;;;;13.27;3.60;;;10.60;99.90;;;;;;5051458;28;20189;-61
2024/01/22 08:46:52;;;;;;;12.67;3.23;;;10.60;99.90;;;;;;5051922;28;20627;-61
2024/01/22 08:49:20;;;;;;;17.03;3.93;;;10.60;99.90;;;;;;5051484;28;20224;-61
2024/01/22 08:51:49;;;;;;;15.17;3.20;;;10.60;99.90;;;;;;5052227;28;20627;-60
2024/01/22 08:54:17;;;;;;;15.10;3.30;;;10.60;99.90;;;;;;5040062;28;20587;-60
2024/01/22 08:56:45;;;;;;;12.90;2.70;;;10.60;99.90;;;;;;5047875;28;20313;-60
2024/01/22 08:59:15;;;;;;;14.40;3.50;;;10.60;99.90;;;;;;5050035;28;20280;-60
2024/01/22 09:01:44;;;;;;;13.10;2.83;;;10.60;99.90;;;;;;5053304;28;20659;-60
2024/01/22 09:04:13;;;;;;;11.80;3.37;;;10.60;99.90;;;;;;5052055;28;20583;-59
2024/01/22 09:06:42;;;;;;;15.33;2.93;;;10.60;99.90;;;;;;5037825;28;20565;-60
2024/01/22 09:09:13;;;;;;;21.27;3.70;;;10.60;99.90;;;;;;5052351;28;20635;-59
2024/01/22 09:11:41;;;;;;;16.97;3.40;;;10.50;99.90;;;;;;5052208;28;20224;-60
2024/01/22 09:14:09;;;;;;;20.37;3.90;;;10.50;99.90;;;;;;5051322;28;20195;-60
2024/01/22 09:16:37;;;;;;;20.37;3.67;;;10.50;99.90;;;;;;5049240;28;20280;-60
2024/01/22 09:19:06;;;;;;;23.40;4.00;;;10.50;99.90;;;;;;5052598;28;20220;-60
2024/01/22 09:21:36;;;;;;;21.13;3.83;;;10.50;99.90;;;;;;5052350;28;20224;-60
2024/01/22 09:24:05;;;;;;;30.13;5.40;;;10.50;99.90;;;;;;5045437;28;20316;-60
2024/01/22 09:26:33;;;;;;;27.00;3.80;;;10.40;99.90;;;;;;5048645;28;20259;-59
2024/01/22 09:29:02;;;;;;;28.87;4.47;;;10.40;99.90;;;;;;5046594;28;20207;-60
2024/01/22 09:31:30;;;;;;;30.47;4.70;;;10.40;99.90;;;;;;5052106;28;20657;-59
2024/01/22 09:33:58;;;;;;;29.40;4.60;;;10.50;99.90;;;;;;5051976;28;20224;-61
2024/01/22 09:36:27;;;;;;;30.10;4.83;;;10.40;99.90;;;;;;5051473;28;20258;-60
2024/01/22 09:38:57;;;;;;;28.53;5.37;;;10.40;99.90;;;;;;5051741;28;20307;-59
2024/01/22 09:41:27;;;;;;;57.63;6.83;;;10.40;99.90;;;;;;5052002;28;20232;-59
2024/01/22 09:43:56;;;;;;;52.40;6.97;;;10.40;99.90;;;;;;5042339;28;20200;-60
2024/01/22 09:46:28;;;;;;;58.23;7.13;;;10.40;99.90;;;;;;5047785;28;20334;-60
2024/01/22 09:48:57;;;;;;;49.47;7.30;;;10.40;99.90;;;;;;5052910;28;20235;-60
2024/01/22 09:51:26;;;;;;;50.03;7.87;;;10.40;99.90;;;;;;5056238;28;20231;-61
2024/01/22 09:54:06;;;;;;;56.57;7.30;;;10.50;99.90;;;;;;5038474;28;20229;-61
2024/01/22 09:56:37;;;;;;;62.90;8.47;;;10.50;99.90;;;;;;5051422;28;20228;-61
2024/01/22 09:59:12;;;;;;;48.57;8.37;;;10.50;99.90;;;;;;5051401;28;20191;-60
2024/01/22 10:01:41;;;;;;;56.97;8.00;;;10.50;99.90;;;;;;5056430;28;20207;-61
2024/01/22 10:04:11;;;;;;;66.37;7.07;;;10.50;99.90;;;;;;5056256;28;20220;-61
2024/01/22 10:06:41;;;;;;;64.30;8.37;;;10.40;99.90;;;;;;5054954;28;20220;-61
2024/01/22 10:09:14;;;;;;;50.83;8.00;;;10.40;99.90;;;;;;5053805;28;20239;-61
2024/01/22 10:11:43;;;;;;;59.57;8.17;;;10.40;99.90;;;;;;5055529;28;20221;-61
2024/01/22 10:14:12;;;;;;;61.27;8.93;;;10.40;99.90;;;;;;5051987;28;20546;-61
2024/01/22 10:16:41;;;;;;;57.27;7.60;;;10.30;99.90;;;;;;5056067;28;20203;-61
2024/01/22 10:19:10;;;;;;;64.93;8.73;;;10.30;99.90;;;;;;5045634;28;20224;-61
2024/01/22 10:21:39;;;;;;;50.47;7.60;;;10.30;99.90;;;;;;5053981;28;20251;-61
2024/01/22 10:24:08;;;;;;;61.47;8.60;;;10.30;99.90;;;;;;5047007;28;20219;-62
2024/01/22 10:26:39;;;;;;;59.43;7.80;;;10.30;99.90;;;;;;5055613;28;20225;-61
2024/01/22 10:29:15;;;;;;;53.87;6.80;;;10.30;99.90;;;;;;5054988;28;20200;-62
2024/01/22 10:31:57;;;;;;;60.87;8.13;;;10.30;99.90;;;;;;5055664;28;20218;-61
2024/01/22 10:34:28;;;;;;;48.47;7.17;;;10.20;99.90;;;;;;5045054;28;20244;-61
2024/01/22 10:37:07;;;;;;;52.50;8.30;;;10.20;99.90;;;;;;5053181;28;20742;-62
2024/01/22 10:39:36;;;;;;;49.67;7.03;;;10.20;99.90;;;;;;5050274;28;20222;-61
2024/01/22 10:42:09;;;;;;;57.13;8.10;;;10.20;99.90;;;;;;5054207;28;20586;-62
2024/01/22 10:44:38;;;;;;;51.90;8.27;;;10.20;99.90;;;;;;5054591;28;20220;-61
2024/01/22 10:47:07;;;;;;;52.20;7.30;;;10.20;99.90;;;;;;5047011;28;20208;-61
2024/01/22 10:49:35;;;;;;;57.30;7.57;;;10.20;99.90;;;;;;5050774;28;20199;-62
2024/01/22 10:52:05;;;;;;;42.67;6.80;;;10.20;99.90;;;;;;5046333;28;20314;-61
2024/01/22 10:54:35;;;;;;;52.53;6.73;;;10.20;99.90;;;;;;5053316;28;20643;-61
2024/01/22 10:57:05;;;;;;;45.33;7.37;;;10.10;99.90;;;;;;5050172;28;20639;-61
2024/01/22 10:59:41;;;;;;;47.37;7.40;;;10.10;99.90;;;;;;5052298;28;20274;-61
2024/01/22 11:02:17;;;;;;;52.70;6.77;;;10.10;99.90;;;;;;5049313;28;20222;-62
2024/01/22 11:04:47;;;;;;;48.93;7.37;;;10.10;99.90;;;;;;5052046;28;20231;-61
2024/01/22 11:07:17;;;;;;;48.10;7.30;;;10.00;99.90;;;;;;5049189;28;20228;-62
2024/01/22 11:09:51;;;;;;;40.93;6.80;;;10.20;99.90;;;;;;5051177;28;20220;-62
2024/01/22 11:12:23;;;;;;;43.37;7.00;;;10.40;99.90;;;;;;5049438;28;20224;-61
2024/01/22 11:14:53;;;;;;;45.13;7.00;;;10.50;99.90;;;;;;5049189;28;20236;-61
2024/01/22 11:17:22;;;;;;;46.87;6.60;;;10.70;99.90;;;;;;5042944;28;20243;-61
2024/01/22 11:19:50;;;;;;;41.00;7.23;;;10.70;99.90;;;;;;5049576;28;20193;-61
2024/01/22 11:22:21;;;;;;;52.43;7.80;;;10.70;99.90;;;;;;5049803;28;20240;-61
2024/01/22 11:25:01;;;;;;;51.50;6.87;;;10.80;99.90;;;;;;5046720;28;20225;-62
2024/01/22 11:27:38;;;;;;;39.37;6.73;;;10.90;99.90;;;;;;5053045;28;20228;-61
2024/01/22 11:30:32;;;;;;;45.43;6.93;;;11.00;99.90;;;;;;5049735;28;20212;-61
2024/01/22 11:33:00;;;;;;;41.10;6.30;;;11.10;99.90;;;;;;5057923;28;20249;-62
2024/01/22 11:35:37;;;;;;;39.40;6.23;;;11.10;99.90;;;;;;5052300;28;20246;-62
2024/01/22 11:38:06;;;;;;;38.43;6.07;;;11.10;99.90;;;;;;5045583;28;20193;-61
2024/01/22 11:40:52;;;;;;;30.20;5.83;;;11.10;99.90;;;;;;5048445;28;20195;-62
2024/01/22 11:43:21;;;;;;;33.27;5.43;;;11.10;99.90;;;;;;5050900;28;20215;-62
2024/01/22 11:45:56;;;;;;;35.10;5.97;;;11.20;99.90;;;;;;5047008;28;20620;-62
2024/01/22 11:48:28;;;;;;;35.40;5.17;;;11.20;99.90;;;;;;5050476;28;20319;-63
2024/01/22 11:50:59;;;;;;;35.13;5.33;;;11.30;99.90;;;;;;5051634;28;20271;-62
2024/01/22 11:53:28;;;;;;;35.27;5.83;;;11.30;99.90;;;;;;5048806;28;20224;-62
2024/01/22 11:56:04;;;;;;;41.43;5.47;;;11.40;99.90;;;;;;5051613;28;20208;-62
2024/01/22 11:58:34;;;;;;;37.83;6.73;;;11.50;99.90;;;;;;5052301;28;20316;-62
2024/01/22 12:01:07;;;;;;;42.13;6.10;;;11.50;99.90;;;;;;5045276;28;20220;-62
2024/01/22 12:03:37;;;;;;;35.03;5.97;;;11.60;99.90;;;;;;5046417;28;20219;-62
2024/01/22 12:06:08;;;;;;;30.73;5.37;;;11.70;99.90;;;;;;5047555;28;20220;-62
2024/01/22 12:08:37;;;;;;;34.30;5.57;;;11.80;99.90;;;;;;5059189;28;20227;-63
2024/01/22 12:11:09;;;;;;;30.27;5.27;;;12.10;99.90;;;;;;5046017;28;20607;-62
2024/01/22 12:13:41;;;;;;;26.63;5.37;;;12.30;99.90;;;;;;5030972;28;20260;-62
2024/01/22 12:16:15;;;;;;;20.53;4.60;;;12.40;99.90;;;;;;5046001;28;20300;-62
2024/01/22 12:18:44;;;;;;;28.80;5.10;;;12.40;97.50;;;;;;5051296;28;20219;-62
2024/01/22 12:21:13;;;;;;;29.23;5.10;;;12.30;97.70;;;;;;5050112;28;20693;-62
2024/01/22 12:23:41;;;;;;;30.37;5.03;;;12.20;99.90;;;;;;5045056;28;20244;-62
2024/01/22 12:26:13;;;;;;;21.87;5.23;;;12.10;99.90;;;;;;5049238;28;20687;-62
2024/01/22 12:28:43;;;;;;;29.83;5.73;;;12.00;99.30;;;;;;5048682;28;20196;-62
2024/01/22 12:31:12;;;;;;;27.70;4.73;;;12.00;99.90;;;;;;5047195;28;20216;-63
2024/01/22 12:33:41;;;;;;;26.43;5.10;;;12.00;97.20;;;;;;5050561;28;20216;-62
2024/01/22 12:36:16;;;;;;;32.97;4.90;;;12.20;97.20;;;;;;5047069;28;20212;-63
2024/01/22 12:38:50;;;;;;;24.50;4.07;;;12.20;94.00;;;;;;5045165;28;20227;-62
2024/01/22 12:41:19;;;;;;;29.20;4.83;;;12.00;92.00;;;;;;5046298;28;20188;-61
2024/01/22 12:43:48;;;;;;;31.43;4.73;;;12.00;90.20;;;;;;5043119;28;20218;-62
2024/01/22 12:46:19;;;;;;;25.83;5.03;;;11.90;91.60;;;;;;5048095;28;20229;-62
2024/01/22 12:48:53;;;;;;;28.37;5.50;;;11.90;94.70;;;;;;5049087;28;20672;-62
2024/01/22 12:51:26;;;;;;;31.57;5.47;;;12.10;96.10;;;;;;5042801;28;20680;-62
2024/01/22 12:53:55;;;;;;;32.47;4.73;;;12.30;87.30;;;;;;5045232;28;20304;-62